ADDS METAR Data INFO
IDs: Format: Raw Decoded Include TAF

Data at: 0348 UTC 19 Feb 2018

KVCB 190253Z AUTO 36008G17KT 10SM CLR 08/M02 A2990 RMK AO2 SLP124 T00831022 55002
KVCB 190153Z AUTO 26015G24KT 10SM CLR 09/M01 A2989 RMK AO2 SLP119 T00941011
KVCB 190053Z AUTO 27012G23KT 10SM CLR 12/M01 A2990 RMK AO2 SLP125 T01171011
KVCB 182353Z AUTO 29016G22KT 10SM CLR 14/M01 A2991 RMK AO2 PK WND 26026/2329 SLP126 T01391011 10156 20128 56011
KVCB 182253Z AUTO 28015G22KT 10SM CLR 13/01 A2991 RMK AO2 PK WND 26028/2202 SLP128 T01330006
KVCB 182153Z AUTO 27014G25KT 10SM SCT070 BKN080 15/01 A2992 RMK AO2 SLP131 T01500006
KVCB 182053Z AUTO 27014G24KT 10SM CLR 16/00 A2994 RMK AO2 PK WND 26029/2016 SLP138 T01560000 58010
KVCB 181953Z AUTO 27015G25KT 10SM CLR 15/02 A2995 RMK AO2 SLP140 T01500017
KVCB 181853Z AUTO 28014G18KT 10SM CLR 15/04 A2997 RMK AO2 SLP147 T01500039
KVCB 181753Z AUTO 32008KT 10SM CLR 15/03 A2997 RMK AO2 SLP148 T01500028 10150 20089 51011
KVCB 181653Z AUTO 21005KT 10SM CLR 12/06 A2997 RMK AO2 SLP147 T01220056
KVCB 181553Z AUTO VRB04KT 10SM CLR 11/05 A2996 RMK AO2 SLP145 T01060050
KVCB 181453Z AUTO 25013G24KT 10SM CLR 09/05 A2994 RMK AO2 PK WND 24026/1421 SLP136 T00890050 50005
KVCB 181353Z AUTO 25019G23KT 10SM CLR 10/06 A2995 RMK AO2 PK WND 25028/1316 SLP140 T01000056
KVCB 181253Z AUTO 24018KT 10SM CLR 10/06 A2992 RMK AO2 SLP131 T01000061
KVCB 181153Z AUTO 24017KT 10SM FEW090 11/06 A2992 RMK AO2 SLP132 T01110056 10133 20067 58013
KVCB 181053Z AUTO 00000KT 10SM CLR 11/07 A2994 RMK AO2 SLP139 T01060067
KVCB 180953Z AUTO 21008KT 10SM CLR 12/07 A2994 RMK AO2 SLP138 T01170072
KVCB 180853Z AUTO 22005KT 10SM CLR 09/06 A2996 RMK AO2 SLP144 T00890061 56010
KVCB 180753Z AUTO 00000KT 10SM CLR 09/06 A2996 RMK AO2 SLP145 T00890061 402170017
KVCB 180653Z AUTO 16003KT 10SM CLR 12/08 A2997 RMK AO2 SLP147 T01220078
KVCB 180553Z AUTO 18003KT 10SM SCT110 13/08 A2999 RMK AO2 SLP154 T01280078 10211 20122 55011
KVCB 180453Z AUTO 21005KT 10SM CLR 14/06 A2999 RMK AO2 SLP153 T01440061
KVCB 180353Z AUTO 23005KT 10SM CLR 14/06 A3001 RMK AO2 SLP160 T01440056
KVCB 180253Z AUTO 21006KT 10SM CLR 16/05 A3002 RMK AO2 SLP165 T01610050 56014
KVCB 180153Z AUTO 20009KT 10SM CLR 18/07 A3002 RMK AO2 SLP166 T01780067
KVCB 180053Z AUTO 17007KT 10SM CLR 20/06 A3004 RMK AO2 SLP171 T02000056
KVCB 172353Z AUTO 19006KT 10SM CLR 21/06 A3006 RMK AO2 SLP179 T02110056 10217 20133 56025
KVCB 172253Z AUTO 12004KT 10SM CLR 21/05 A3008 RMK AO2 SLP185 T02060050
KVCB 172153Z AUTO 00000KT 10SM CLR 21/04 A3010 RMK AO2 SLP191 T02060039
KVCB 172053Z AUTO 00000KT 10SM CLR 19/04 A3013 RMK AO2 SLP204 T01940039 58021
KVCB 171953Z AUTO 05005KT 10SM CLR 18/04 A3017 RMK AO2 SLP214 T01830039
KVCB 171853Z AUTO 03005KT 10SM CLR 17/03 A3018 RMK AO2 SLP220 T01670033
KVCB 171753Z AUTO 00000KT 10SM CLR 14/03 A3020 RMK AO2 SLP225 T01390028 10139 20017 51012
KVCB 171653Z AUTO 00000KT 10SM CLR 09/04 A3020 RMK AO2 SLP225 T00890044
KVCB 171553Z AUTO 00000KT 10SM CLR 06/02 A3019 RMK AO2 SLP222 T00560022